createdAt,value
2023-01-11T00:01:53.112Z,5.88
2023-01-11T00:04:20.813Z,6.10
2023-01-11T00:06:48.249Z,5.25
2023-01-11T00:09:16.077Z,5.90
2023-01-11T00:11:43.426Z,6.07
2023-01-11T00:14:10.778Z,5.72
2023-01-11T00:16:38.169Z,5.93
2023-01-11T00:19:05.476Z,5.60
2023-01-11T00:21:32.837Z,6.07
2023-01-11T00:24:00.117Z,6.03
2023-01-11T00:26:27.457Z,6.25
2023-01-11T00:28:54.866Z,5.18
2023-01-11T00:31:22.306Z,5.13
2023-01-11T00:33:49.689Z,6.10
2023-01-11T00:36:17.066Z,5.80
2023-01-11T00:38:44.340Z,6.28
2023-01-11T00:41:32.104Z,6.28
2023-01-11T00:44:18.357Z,6.68
2023-01-11T00:47:04.256Z,6.38
2023-01-11T00:49:31.671Z,5.80
2023-01-11T00:51:59.217Z,5.30
2023-01-11T00:54:26.501Z,6.05
2023-01-11T00:56:53.871Z,5.57
2023-01-11T00:59:21.161Z,5.25
2023-01-11T01:01:51.224Z,5.00
2023-01-11T01:04:18.558Z,5.40
2023-01-11T01:06:45.951Z,5.45
2023-01-11T01:09:13.196Z,4.78
2023-01-11T01:11:40.552Z,5.03
2023-01-11T01:14:26.553Z,4.75
2023-01-11T01:16:56.615Z,5.25
2023-01-11T01:19:24.186Z,5.07
2023-01-11T01:21:51.495Z,5.15
2023-01-11T01:24:18.870Z,5.13
2023-01-11T01:27:04.973Z,4.40
2023-01-11T01:29:32.236Z,4.03
2023-01-11T01:31:59.673Z,4.05
2023-01-11T01:34:27.006Z,3.80
2023-01-11T01:36:54.247Z,3.50
2023-01-11T01:39:21.523Z,3.50
2023-01-11T01:41:48.815Z,3.40
2023-01-11T01:44:53.009Z,3.33
2023-01-11T01:47:25.978Z,3.30
2023-01-11T01:49:53.547Z,3.22
2023-01-11T01:52:21.286Z,3.38
2023-01-11T01:54:49.657Z,3.75
2023-01-11T01:57:23.148Z,4.22
2023-01-11T01:59:51.964Z,4.15
2023-01-11T02:02:24.794Z,3.80
2023-01-11T02:04:55.731Z,3.78
2023-01-11T02:07:31.723Z,3.28
2023-01-11T02:10:14.010Z,3.47
2023-01-11T02:12:57.728Z,3.42
2023-01-11T02:15:29.738Z,3.17
2023-01-11T02:17:58.557Z,3.92
2023-01-11T02:20:26.033Z,3.90
2023-01-11T02:23:11.331Z,3.42
2023-01-11T02:25:45.176Z,3.28
2023-01-11T02:28:21.754Z,3.58
2023-01-11T02:30:49.082Z,3.80
2023-01-11T02:33:32.948Z,4.30
2023-01-11T02:36:17.680Z,3.40
2023-01-11T02:38:51.446Z,4.10
2023-01-11T02:42:01.648Z,3.55
2023-01-11T02:44:57.093Z,3.65
2023-01-11T02:47:41.479Z,3.60
2023-01-11T02:50:14.832Z,3.95
2023-01-11T02:52:54.185Z,3.83
2023-01-11T02:55:28.897Z,3.92
2023-01-11T02:58:00.718Z,4.13
2023-01-11T03:03:10.498Z,3.60
2023-01-11T03:05:44.204Z,4.13
2023-01-11T03:08:30.121Z,4.05
2023-01-11T03:11:07.523Z,3.30
2023-01-11T03:13:51.665Z,3.92
2023-01-11T03:16:29.961Z,3.97
2023-01-11T03:19:12.535Z,4.10
2023-01-11T03:22:03.214Z,3.47
2023-01-11T03:24:52.797Z,3.55
2023-01-11T03:27:37.885Z,3.90
2023-01-11T03:30:33.590Z,3.90
2023-01-11T03:33:11.356Z,24.63
2023-01-11T03:35:50.923Z,6.00
2023-01-11T03:38:28.254Z,3.40
2023-01-11T03:41:04.506Z,3.33
2023-01-11T03:43:36.019Z,3.60
2023-01-11T03:46:14.931Z,3.50
2023-01-11T03:49:10.539Z,3.30
2023-01-11T03:51:43.400Z,3.35
2023-01-11T03:54:16.159Z,3.55
2023-01-11T03:56:59.246Z,3.08
2023-01-11T03:59:27.539Z,3.70
2023-01-11T04:01:56.053Z,3.45
2023-01-11T04:04:24.461Z,3.10
2023-01-11T04:06:51.941Z,3.67
2023-01-11T04:09:19.298Z,3.67
2023-01-11T04:11:46.703Z,3.58
2023-01-11T04:14:14.080Z,3.38
2023-01-11T04:16:41.592Z,3.80
2023-01-11T04:19:08.967Z,3.33
2023-01-11T04:21:36.420Z,3.53
2023-01-11T04:24:04.047Z,3.67
2023-01-11T04:26:31.652Z,3.90
2023-01-11T04:28:59.152Z,3.80
2023-01-11T04:31:27.051Z,3.35
2023-01-11T04:33:54.665Z,3.60
2023-01-11T04:36:22.280Z,3.22
2023-01-11T04:38:49.595Z,4.18
2023-01-11T04:41:35.649Z,3.88
2023-01-11T04:44:02.921Z,3.72
2023-01-11T04:46:30.409Z,3.97
2023-01-11T04:48:57.823Z,3.90
2023-01-11T04:51:25.464Z,3.58
2023-01-11T04:53:53.209Z,3.20
2023-01-11T04:56:20.516Z,3.83
2023-01-11T04:58:47.788Z,3.08
2023-01-11T05:01:18.437Z,2.90
2023-01-11T05:03:46.648Z,2.92
2023-01-11T05:06:15.396Z,3.13
2023-01-11T05:08:47.430Z,2.90
2023-01-11T05:11:16.324Z,3.05
2023-01-11T05:13:43.919Z,3.15
2023-01-11T05:16:17.954Z,3.05
2023-01-11T05:18:53.614Z,3.25
2023-01-11T05:21:23.965Z,3.40
2023-01-11T05:23:52.425Z,3.00
2023-01-11T05:26:27.391Z,2.72
2023-01-11T05:28:57.098Z,2.70
2023-01-11T05:31:25.234Z,3.05
2023-01-11T05:33:53.006Z,2.70
2023-01-11T05:36:21.654Z,2.92
2023-01-11T05:38:50.611Z,2.78
2023-01-11T05:41:19.534Z,3.10
2023-01-11T05:44:07.556Z,3.00
2023-01-11T05:46:36.842Z,2.72
2023-01-11T05:49:05.330Z,2.88
2023-01-11T05:51:33.250Z,3.42
2023-01-11T05:54:02.361Z,3.47
2023-01-11T05:56:30.293Z,3.00
2023-01-11T05:58:58.155Z,2.95
2023-01-11T06:01:26.367Z,2.95
2023-01-11T06:03:53.714Z,3.40
2023-01-11T06:06:21.774Z,3.25
2023-01-11T06:08:49.419Z,2.97
2023-01-11T06:11:16.854Z,3.13
2023-01-11T06:13:44.156Z,3.88
2023-01-11T06:16:17.513Z,3.50
2023-01-11T06:18:47.574Z,4.68
2023-01-11T06:21:16.159Z,9.02
2023-01-11T06:23:45.852Z,8.68
2023-01-11T06:26:18.780Z,6.03
2023-01-11T06:28:46.382Z,4.60
2023-01-11T06:31:16.969Z,4.50
2023-01-11T06:33:45.901Z,4.65
2023-01-11T06:36:14.345Z,4.05
2023-01-11T06:38:42.818Z,3.78
2023-01-11T06:41:11.248Z,3.97
2023-01-11T06:43:41.813Z,3.60
2023-01-11T06:46:14.920Z,4.45
2023-01-11T06:48:43.360Z,4.93
2023-01-11T06:51:12.141Z,5.20
2023-01-11T06:53:41.091Z,5.03
2023-01-11T06:56:12.641Z,5.50
2023-01-11T06:58:40.053Z,4.90
2023-01-11T07:01:07.630Z,4.50
2023-01-11T07:03:35.403Z,4.72
2023-01-11T07:06:04.421Z,5.20
2023-01-11T07:08:31.775Z,4.53
2023-01-11T07:10:59.179Z,4.30
2023-01-11T07:13:26.519Z,4.10
2023-01-11T07:15:57.331Z,4.90
2023-01-11T07:18:24.788Z,5.07
2023-01-11T07:20:52.229Z,4.90
2023-01-11T07:23:19.691Z,4.40
2023-01-11T07:25:49.488Z,4.80
2023-01-11T07:28:16.869Z,4.63
2023-01-11T07:30:57.432Z,4.38
2023-01-11T07:33:26.198Z,4.50
2023-01-11T07:35:53.910Z,4.13
2023-01-11T07:38:21.455Z,4.68
2023-01-11T07:40:48.824Z,4.72
2023-01-11T07:43:18.211Z,5.07
2023-01-11T07:45:50.457Z,4.65
2023-01-11T07:48:21.115Z,4.20
2023-01-11T07:50:48.991Z,4.05
2023-01-11T07:53:16.847Z,4.85
2023-01-11T07:55:44.594Z,4.63
2023-01-11T07:58:13.280Z,3.97
2023-01-11T08:00:41.208Z,4.55
2023-01-11T08:03:09.532Z,4.40
2023-01-11T08:05:37.349Z,5.65
2023-01-11T08:08:05.800Z,4.80
2023-01-11T08:10:34.386Z,4.75
2023-01-11T08:13:20.605Z,5.00
2023-01-11T08:15:47.998Z,5.18
2023-01-11T08:18:17.130Z,5.05
2023-01-11T08:20:45.719Z,5.38
2023-01-11T08:23:13.082Z,5.10
2023-01-11T08:25:40.498Z,4.88
2023-01-11T08:28:08.010Z,4.53
2023-01-11T08:30:36.739Z,4.72
2023-01-11T08:33:05.530Z,4.65
2023-01-11T08:35:38.164Z,4.25
2023-01-11T08:38:05.696Z,4.70
2023-01-11T08:40:33.023Z,4.10
2023-01-11T08:43:00.325Z,4.47
2023-01-11T08:45:28.092Z,4.40
2023-01-11T08:47:55.598Z,4.35
2023-01-11T08:50:23.351Z,4.15
2023-01-11T08:52:51.823Z,3.90
2023-01-11T08:55:20.075Z,4.10
2023-01-11T08:57:47.505Z,4.72
2023-01-11T09:00:15.477Z,3.50
2023-01-11T09:02:45.278Z,3.90
2023-01-11T09:05:12.784Z,3.28
2023-01-11T09:07:40.528Z,3.03
2023-01-11T09:10:08.547Z,3.70
2023-01-11T09:12:36.064Z,3.67
2023-01-11T09:15:05.977Z,3.10
2023-01-11T09:17:33.919Z,3.97
2023-01-11T09:20:01.248Z,3.22
2023-01-11T09:22:28.827Z,2.90
2023-01-11T09:24:58.969Z,3.13
2023-01-11T09:27:26.591Z,3.00
2023-01-11T09:29:53.941Z,3.00
2023-01-11T09:32:21.691Z,2.58
2023-01-11T09:34:49.796Z,3.47
2023-01-11T09:37:17.537Z,3.10
2023-01-11T09:39:45.473Z,3.28
2023-01-11T09:42:31.479Z,2.97
2023-01-11T09:45:14.353Z,3.95
2023-01-11T09:48:11.698Z,3.80
2023-01-11T09:50:47.768Z,3.85
2023-01-11T09:53:32.237Z,3.65
2023-01-11T09:56:03.751Z,3.67
2023-01-11T09:58:50.980Z,4.13
2023-01-11T10:01:39.228Z,4.85
2023-01-11T10:04:33.111Z,4.15
2023-01-11T10:07:34.693Z,4.43
2023-01-11T10:18:23.717Z,5.00
2023-01-11T10:18:33.758Z,5.32
2023-01-11T10:19:57.979Z,4.85
2023-01-11T10:22:41.020Z,4.30
2023-01-11T10:25:26.698Z,20.83
2023-01-11T10:27:58.983Z,6.45
2023-01-11T10:30:51.440Z,12.48
2023-01-11T10:33:43.591Z,5.93
2023-01-11T10:36:22.446Z,5.55
2023-01-11T10:39:27.315Z,4.97
2023-01-11T10:42:09.591Z,5.40
2023-01-11T10:45:00.388Z,4.90
2023-01-11T10:48:02.731Z,5.40
2023-01-11T10:50:38.770Z,6.00
2023-01-11T10:53:12.785Z,4.90
2023-01-11T10:55:59.232Z,4.85
2023-01-11T10:58:46.154Z,5.10
2023-01-11T11:01:39.458Z,5.22
2023-01-11T11:04:15.802Z,4.25
2023-01-11T11:07:21.279Z,4.30
2023-01-11T11:09:51.382Z,3.55
2023-01-11T11:12:24.598Z,4.15
2023-01-11T11:15:03.348Z,4.47
2023-01-11T11:17:33.335Z,4.35
2023-01-11T11:20:00.998Z,4.57
2023-01-11T11:22:28.331Z,3.60
2023-01-11T11:25:01.535Z,4.20
2023-01-11T11:27:37.905Z,3.85
2023-01-11T11:30:05.786Z,3.67
2023-01-11T11:32:36.952Z,4.30
2023-01-11T11:35:04.953Z,3.65
2023-01-11T11:37:35.373Z,3.90
2023-01-11T11:40:04.031Z,3.70
2023-01-11T11:42:31.383Z,3.80
2023-01-11T11:45:13.673Z,3.40
2023-01-11T11:47:41.220Z,3.50
2023-01-11T11:50:43.310Z,3.33
2023-01-11T11:53:22.647Z,22.45
2023-01-11T11:55:51.783Z,4.35
2023-01-11T11:58:23.863Z,3.40
2023-01-11T12:03:22.830Z,3.88
2023-01-11T12:06:03.770Z,4.68
2023-01-11T12:08:34.669Z,4.53
2023-01-11T12:11:05.716Z,4.72
2023-01-11T12:13:38.395Z,4.80
2023-01-11T12:16:18.218Z,5.30
2023-01-11T12:18:45.928Z,5.40
2023-01-11T12:21:42.397Z,5.28
2023-01-11T12:24:18.389Z,5.30
2023-01-11T12:26:48.751Z,5.10
2023-01-11T12:29:16.087Z,5.18
2023-01-11T12:31:55.535Z,5.40
2023-01-11T12:34:37.717Z,5.18
2023-01-11T12:39:53.246Z,4.78
2023-01-11T12:42:37.738Z,5.45
2023-01-11T12:45:16.172Z,5.68
2023-01-11T12:48:10.193Z,6.05
2023-01-11T12:51:13.358Z,6.05
2023-01-11T12:54:10.488Z,5.63
2023-01-11T12:56:56.240Z,45.75
2023-01-11T12:59:32.475Z,13.85
2023-01-11T13:02:12.732Z,6.28
2023-01-11T13:05:05.436Z,6.05
2023-01-11T13:07:43.460Z,5.82
2023-01-11T13:10:40.154Z,5.82
2023-01-11T13:13:11.711Z,5.53
2023-01-11T13:15:43.233Z,5.65
2023-01-11T13:18:42.359Z,4.90
2023-01-11T13:21:31.781Z,4.57
2023-01-11T13:24:03.832Z,5.15
2023-01-11T13:29:14.177Z,4.82
2023-01-11T13:31:44.290Z,5.15
2023-01-11T13:34:26.959Z,5.00
2023-01-11T13:37:06.451Z,5.40
2023-01-11T13:39:43.194Z,5.55
2023-01-11T13:42:25.042Z,6.22
2023-01-11T13:45:03.228Z,5.72
2023-01-11T13:47:39.834Z,5.97
2023-01-11T13:50:22.511Z,6.30
2023-01-11T13:53:03.326Z,6.05
2023-01-11T13:55:48.292Z,5.55
2023-01-11T13:58:24.752Z,6.45
2023-01-11T14:01:03.317Z,6.07
2023-01-11T14:03:46.983Z,6.72
2023-01-11T14:06:39.928Z,7.22
2023-01-11T14:09:44.792Z,6.88
2023-01-11T14:12:16.877Z,6.88
2023-01-11T14:17:51.838Z,6.10
2023-01-11T14:20:29.404Z,7.03
2023-01-11T14:23:17.356Z,7.35
2023-01-11T14:26:07.206Z,7.00
2023-01-11T14:28:50.533Z,6.70
2023-01-11T14:32:07.333Z,5.57
2023-01-11T14:35:19.791Z,5.30
2023-01-11T14:38:22.742Z,5.57
2023-01-11T14:41:02.085Z,5.07
2023-01-11T14:44:02.792Z,4.80
2023-01-11T14:46:33.298Z,4.88
2023-01-11T14:49:33.745Z,4.70
2023-01-11T14:52:34.413Z,4.88
2023-01-11T14:55:15.782Z,5.45
2023-01-11T14:58:01.243Z,5.18
2023-01-11T15:00:28.569Z,4.85
2023-01-11T15:03:02.009Z,4.82
2023-01-11T15:05:29.293Z,5.15
2023-01-11T15:08:23.472Z,5.15
2023-01-11T15:11:24.238Z,5.78
2023-01-11T15:14:19.174Z,5.15
2023-01-11T15:17:10.009Z,5.47
2023-01-11T15:19:41.768Z,5.20
2023-01-11T15:22:23.300Z,5.05
2023-01-11T15:25:03.205Z,5.10
2023-01-11T15:27:34.273Z,5.75
2023-01-11T15:30:02.883Z,5.78
2023-01-11T15:32:33.071Z,6.57
2023-01-11T15:35:25.153Z,6.18
2023-01-11T15:37:55.145Z,5.97
2023-01-11T15:40:26.586Z,5.85
2023-01-11T15:43:24.904Z,7.25
2023-01-11T15:46:34.909Z,6.85
2023-01-11T15:49:44.820Z,6.78
2023-01-11T15:52:33.429Z,7.05
2023-01-11T15:55:39.949Z,7.05
2023-01-11T15:58:19.522Z,7.68
2023-01-11T16:01:20.422Z,8.30
2023-01-11T16:04:01.835Z,9.35
2023-01-11T16:06:35.284Z,9.60
2023-01-11T16:09:34.163Z,10.18
2023-01-11T16:12:35.522Z,9.20
2023-01-11T16:15:09.102Z,9.57
2023-01-11T16:17:40.299Z,9.63
2023-01-11T16:20:26.244Z,9.43
2023-01-11T16:22:57.261Z,10.32
2023-01-11T16:25:30.061Z,9.83
2023-01-11T16:27:59.616Z,8.40
2023-01-11T16:30:28.170Z,8.90
2023-01-11T16:33:21.115Z,7.82
2023-01-11T16:35:49.649Z,8.68
2023-01-11T16:38:21.296Z,9.25
2023-01-11T16:40:52.758Z,9.27
2023-01-11T16:43:31.067Z,7.93
2023-01-11T16:45:58.564Z,8.07
2023-01-11T16:48:29.985Z,8.35
2023-01-11T16:51:16.371Z,8.30
2023-01-11T16:53:53.496Z,7.78
2023-01-11T16:56:23.682Z,8.25
2023-01-11T16:59:24.540Z,9.30
2023-01-11T17:01:58.872Z,9.00
2023-01-11T17:04:36.688Z,8.70
2023-01-11T17:07:20.362Z,8.68
2023-01-11T17:09:48.077Z,8.90
2023-01-11T17:12:26.373Z,9.50
2023-01-11T17:15:28.830Z,9.40
2023-01-11T17:20:30.899Z,11.13
2023-01-11T17:22:59.089Z,11.30
2023-01-11T17:25:43.867Z,11.73
2023-01-11T17:28:18.679Z,10.73
2023-01-11T17:30:49.406Z,10.68
2023-01-11T17:33:32.387Z,11.13
2023-01-11T17:36:01.854Z,12.13
2023-01-11T17:38:30.293Z,11.35
2023-01-11T17:40:58.607Z,15.00
2023-01-11T17:43:48.486Z,13.93
2023-01-11T17:46:18.657Z,13.07
2023-01-11T17:48:58.275Z,13.35
2023-01-11T17:51:27.700Z,14.43
2023-01-11T17:53:55.194Z,12.52
2023-01-11T17:56:45.573Z,13.25
2023-01-11T17:59:18.922Z,11.95
2023-01-11T18:01:49.235Z,10.20
2023-01-11T18:04:22.017Z,11.32
2023-01-11T18:06:52.831Z,12.13
2023-01-11T18:09:24.144Z,11.88
2023-01-11T18:11:52.991Z,11.77
2023-01-11T18:14:27.826Z,12.82
2023-01-11T18:17:01.062Z,11.55
2023-01-11T18:19:42.854Z,11.88
2023-01-11T18:22:33.418Z,11.93
2023-01-11T18:25:06.022Z,11.15
2023-01-11T18:27:35.395Z,11.57
2023-01-11T18:30:07.707Z,10.68
2023-01-11T18:32:42.570Z,8.70
2023-01-11T18:35:19.940Z,8.95
2023-01-11T18:37:47.474Z,8.73
2023-01-11T18:40:16.352Z,9.82
2023-01-11T18:42:46.919Z,8.68
2023-01-11T18:45:14.746Z,8.38
2023-01-11T18:47:42.115Z,8.18
2023-01-11T18:50:14.304Z,8.32
2023-01-11T18:52:41.592Z,8.55
2023-01-11T18:55:11.435Z,8.57
2023-01-11T18:57:38.969Z,9.30
2023-01-11T19:00:06.827Z,9.45
2023-01-11T19:02:42.856Z,12.00
2023-01-11T19:05:12.628Z,11.50
2023-01-11T19:07:39.969Z,16.15
2023-01-11T19:10:08.188Z,21.55
2023-01-11T19:12:35.541Z,13.52
2023-01-11T19:15:02.869Z,9.07
2023-01-11T19:17:31.653Z,9.65
2023-01-11T19:19:59.076Z,10.52
2023-01-11T19:22:27.033Z,9.43
2023-01-11T19:24:54.918Z,10.18
2023-01-11T19:27:23.089Z,9.93
2023-01-11T19:29:51.598Z,9.65
2023-01-11T19:32:23.585Z,10.73
2023-01-11T19:37:20.805Z,11.02
2023-01-11T19:39:48.425Z,11.40
2023-01-11T19:42:15.858Z,11.98
2023-01-11T19:44:43.166Z,12.13
2023-01-11T19:47:13.459Z,11.10
2023-01-11T19:49:42.283Z,11.88
2023-01-11T19:52:18.675Z,11.82
2023-01-11T19:54:47.287Z,12.98
2023-01-11T19:57:20.683Z,10.07
2023-01-11T19:59:49.627Z,10.93
2023-01-11T20:02:19.688Z,11.02
2023-01-11T20:04:47.505Z,11.85
2023-01-11T20:07:15.870Z,12.82
2023-01-11T20:09:43.603Z,12.60
2023-01-11T20:12:12.581Z,13.25
2023-01-11T20:14:40.744Z,14.38
2023-01-11T20:17:08.597Z,13.73
2023-01-11T20:19:36.187Z,14.15
2023-01-11T20:22:03.798Z,13.35
2023-01-11T20:24:31.448Z,13.55
2023-01-11T20:27:00.389Z,14.40
2023-01-11T20:29:27.836Z,14.18
2023-01-11T20:31:55.799Z,13.48
2023-01-11T20:34:24.034Z,13.60
2023-01-11T20:36:51.625Z,14.30
2023-01-11T20:39:19.035Z,14.55
2023-01-11T20:41:50.070Z,13.52
2023-01-11T20:44:24.394Z,14.20
2023-01-11T20:46:53.276Z,13.55
2023-01-11T20:49:23.416Z,14.85
2023-01-11T20:51:50.820Z,15.52
2023-01-11T20:54:19.172Z,14.25
2023-01-11T20:56:47.004Z,15.20
2023-01-11T20:59:17.378Z,15.20
2023-01-11T21:01:44.898Z,14.43
2023-01-11T21:04:13.645Z,13.52
2023-01-11T21:06:43.518Z,12.38
2023-01-11T21:09:14.267Z,12.50
2023-01-11T21:11:42.155Z,12.60
2023-01-11T21:14:12.139Z,12.55
2023-01-11T21:16:44.370Z,13.05
2023-01-11T21:19:14.160Z,12.27
2023-01-11T21:21:42.168Z,12.32
2023-01-11T21:24:12.531Z,13.93
2023-01-11T21:26:42.385Z,14.95
2023-01-11T21:29:11.751Z,15.27
2023-01-11T21:31:40.258Z,16.00
2023-01-11T21:34:09.696Z,15.20
2023-01-11T21:36:37.068Z,13.48
2023-01-11T21:39:04.565Z,13.70
2023-01-11T21:41:52.121Z,14.52
2023-01-11T21:44:21.319Z,15.20
2023-01-11T21:46:50.063Z,14.32
2023-01-11T21:49:17.840Z,14.02
2023-01-11T21:51:45.359Z,13.45
2023-01-11T21:54:14.652Z,14.20
2023-01-11T21:56:42.132Z,12.65
2023-01-11T21:59:10.169Z,13.52
2023-01-11T22:01:39.592Z,12.88
2023-01-11T22:04:08.992Z,13.15
2023-01-11T22:06:37.953Z,14.60
2023-01-11T22:09:06.624Z,15.45
2023-01-11T22:11:33.979Z,16.02
2023-01-11T22:14:02.846Z,14.15
2023-01-11T22:16:31.290Z,14.15
2023-01-11T22:19:00.227Z,13.25
2023-01-11T22:21:28.346Z,12.48
2023-01-11T22:23:57.684Z,12.40
2023-01-11T22:26:26.327Z,13.32
2023-01-11T22:29:13.921Z,13.20
2023-01-11T22:31:47.346Z,12.52
2023-01-11T22:34:15.318Z,13.20
2023-01-11T22:36:43.559Z,12.25
2023-01-11T22:39:12.293Z,11.25
2023-01-11T22:41:40.507Z,11.80
2023-01-11T22:44:10.219Z,11.85
2023-01-11T22:46:37.893Z,11.23
2023-01-11T22:49:08.792Z,11.57
2023-01-11T22:51:36.165Z,10.65
2023-01-11T22:54:04.431Z,11.90
2023-01-11T22:56:32.157Z,11.68
2023-01-11T22:59:00.274Z,10.13
2023-01-11T23:01:30.390Z,10.25
2023-01-11T23:03:58.590Z,10.25
2023-01-11T23:06:31.259Z,9.70
2023-01-11T23:08:59.362Z,9.07
2023-01-11T23:11:52.040Z,9.43
2023-01-11T23:14:20.139Z,9.00
2023-01-11T23:16:49.276Z,8.90
2023-01-11T23:19:18.308Z,9.40
2023-01-11T23:21:47.355Z,8.50
2023-01-11T23:24:16.442Z,8.18
2023-01-11T23:26:44.588Z,7.97
2023-01-11T23:29:12.383Z,8.02
2023-01-11T23:31:40.057Z,7.78
2023-01-11T23:34:08.527Z,7.72
2023-01-11T23:36:38.491Z,7.88
2023-01-11T23:39:07.935Z,7.30
2023-01-11T23:41:54.603Z,6.97
2023-01-11T23:44:22.890Z,7.57
2023-01-11T23:47:09.225Z,7.63
2023-01-11T23:49:36.929Z,6.97
2023-01-11T23:52:04.345Z,7.45
2023-01-11T23:54:33.306Z,7.72
2023-01-11T23:57:02.249Z,6.60
2023-01-11T23:59:29.867Z,7.30
